MET'MAP v2.0
soon released !

Expected late october,
this new version will be
more efficient, smarter,
and hosted on a brand new
server x3 powerfull...
...and still free !


Not compatible ?
Try the mobile version !

LOG IN : | Subscribe | Disclaimer | Who is Orbifly ? |
ICAO code :

TAF - EGMD Lydd - 14 Dec 2019 21:52 UTC
Data Sources :     NOAA   


- Airport Elevation : 13 ft
- IATA code : LYX
- No reported NOTAMs.


EGMD - Lydd

Latest METAR recorded : 2015/08/11 07:50 EGMD 110750Z 35003KT 9999 BKN030 15/15 Q1019
TAF TAF EGMD
Valid from the 14 at 21:00 until the 15 at 06:00 UTC


141956Z 1421/1506 22015KT 9999 FEW030
BECMG 1421/1423 24023G33KT
PROB30
TEMPO 1422/1506 24025G43KT
TEMPO 1423/1503 4000 +SHRA BKN012

Source NOAA
ATIS : +44 1797 322 422


MET'MAP, your aeronautical weather chart ! - Copyright ORBIFLY December 2007

Programming & Development : Alexandra Zaïnal
Co-Developer : Marc-Olivier Méhu
Technical & hardware support : Manuel Goepfert
Concept & Financing : Baudouin d'Aumeries